Time;durP1;ratioP1;P1;durP2;ratioP2;P2;SDS_P1;SDS_P2;PMS_P1;PMS_P2;Temp;Humidity;BMP_temperature;BMP_pressure;BME280_temperature;BME280_humidity;BME280_pressure;Samples;Min_cycle;Max_cycle;Signal;HPM_P1;HPM_P2
2022/09/24 00:01:09;;;;;;;7.30;4.80;;;;;;;16.95;53.18;98351.50;5053791;28;20044;-80
2022/09/24 00:03:35;;;;;;;5.70;4.82;;;;;;;16.66;53.51;98324.50;5120559;28;20055;-81
2022/09/24 00:06:02;;;;;;;6.68;5.35;;;;;;;16.81;53.66;98335.63;5066266;28;20043;-82
2022/09/24 00:08:27;;;;;;;5.32;4.45;;;;;;;16.66;53.86;98332.56;5064610;28;20054;-81
2022/09/24 00:10:55;;;;;;;6.75;5.00;;;;;;;16.65;53.86;98309.44;5081770;28;20044;-83
2022/09/24 00:13:22;;;;;;;6.18;4.60;;;;;;;16.67;53.64;98296.66;5100325;28;20131;-78
2022/09/24 00:15:49;;;;;;;5.65;4.72;;;;;;;16.70;53.72;98281.94;5069705;28;20130;-82
2022/09/24 00:18:17;;;;;;;5.53;4.45;;;;;;;16.89;53.70;98296.94;5067441;28;20111;-82
2022/09/24 00:20:43;;;;;;;6.25;5.03;;;;;;;16.76;53.67;98284.53;5099009;28;20533;-80
2022/09/24 00:23:10;;;;;;;6.97;4.95;;;;;;;16.90;53.62;98282.47;5100283;28;20044;-77
2022/09/24 00:28:28;;;;;;;6.63;5.07;;;;;;;16.77;53.65;98267.41;5068287;28;20047;-78
2022/09/24 00:30:57;;;;;;;7.95;4.88;;;;;;;16.71;53.72;98268.31;5100603;28;20039;-80
2022/09/24 00:33:27;;;;;;;6.40;4.97;;;;;;;16.70;53.80;98255.16;5082503;28;20118;-82
2022/09/24 00:35:58;;;;;;;5.97;4.18;;;;;;;16.88;53.49;98253.19;5100047;28;20111;-80
2022/09/24 00:38:24;;;;;;;9.50;4.95;;;;;;;16.67;54.01;98237.66;5049443;28;20067;-81
2022/09/24 00:40:49;;;;;;;6.32;4.00;;;;;;;16.67;53.75;98231.47;5048820;28;20067;-79
2022/09/24 00:43:33;;;;;;;6.50;3.53;;;;;;;16.88;53.37;98216.72;5065494;28;20077;-79
2022/09/24 00:46:09;;;;;;;4.80;3.88;;;;;;;16.84;53.77;98206.44;5099241;28;20047;-77
2022/09/24 00:48:36;;;;;;;6.75;4.00;;;;;;;16.80;53.60;98209.84;5065896;28;20031;-79
2022/09/24 00:51:03;;;;;;;4.32;3.70;;;;;;;16.76;53.88;98211.31;5084364;28;20055;-81
2022/09/24 00:53:32;;;;;;;4.70;3.70;;;;;;;16.66;53.93;98208.41;5049293;28;20054;-82
2022/09/24 00:56:00;;;;;;;4.05;3.47;;;;;;;16.83;53.79;98202.16;5082701;28;20051;-78
2022/09/24 00:58:27;;;;;;;4.75;3.25;;;;;;;16.71;53.86;98195.94;5049554;28;20050;-84
2022/09/24 01:00:57;;;;;;;4.15;3.25;;;;;;;16.73;53.95;98193.84;5070119;28;20039;-84
2022/09/24 01:03:24;;;;;;;6.70;3.43;;;;;;;16.71;54.06;98185.22;5101282;28;20051;-84
2022/09/24 01:05:50;;;;;;;6.78;2.58;;;;;;;16.62;54.17;98175.88;5082600;28;20047;-82
2022/09/24 01:08:18;;;;;;;2.88;2.47;;;;;;;16.65;54.02;98172.75;5083072;28;20546;-81
2022/09/24 01:10:55;;;;;;;3.20;2.85;;;;;;;16.65;54.13;98147.81;5054830;28;20421;-80
2022/09/24 01:13:33;;;;;;;2.75;2.28;;;;;;;16.84;53.78;98173.44;5088492;28;20123;-80
2022/09/24 01:16:22;;;;;;;2.53;1.90;;;;;;;16.88;53.32;98162.03;5087032;28;20046;-83
2022/09/24 01:18:48;;;;;;;2.40;1.90;;;;;;;16.55;54.20;98159.09;5072682;28;20059;-81
2022/09/24 01:21:39;;;;;;;2.35;2.00;;;;;;;16.86;53.67;98155.28;5100427;28;20051;-81
2022/09/24 01:24:17;;;;;;;2.45;1.90;;;;;;;16.79;53.72;98150.00;5098249;28;20053;-82
2022/09/24 01:27:02;;;;;;;2.53;1.80;;;;;;;16.91;53.63;98143.84;5065256;28;20485;-81
2022/09/24 01:29:40;;;;;;;2.50;1.88;;;;;;;16.83;53.98;98136.97;5049153;28;20050;-82
2022/09/24 01:32:32;;;;;;;2.83;2.10;;;;;;;16.72;54.03;98138.59;5100553;28;20059;-82
2022/09/24 01:35:01;;;;;;;1.85;1.73;;;;;;;16.73;53.82;98134.88;5097954;28;20510;-79
2022/09/24 01:37:31;;;;;;;2.90;1.83;;;;;;;16.73;53.94;98124.16;5082176;28;20051;-82
2022/09/24 01:40:01;;;;;;;2.45;1.70;;;;;;;16.65;54.13;98119.13;5099968;28;20051;-82
2022/09/24 01:42:30;;;;;;;2.40;1.75;;;;;;;16.66;54.01;98126.13;5100298;28;20081;-83
2022/09/24 01:44:57;;;;;;;2.30;1.90;;;;;;;16.53;54.48;98102.22;5055474;28;20131;-82
2022/09/24 01:47:30;;;;;;;4.50;1.80;;;;;;;16.72;54.60;98110.97;5059489;28;20062;-84
2022/09/24 01:49:56;;;;;;;2.35;1.73;;;;;;;16.47;54.40;98092.44;5102092;28;20055;-81
2022/09/24 01:52:25;;;;;;;2.85;1.30;;;;;;;16.55;54.13;98064.47;5051643;28;20039;-82
2022/09/24 01:54:51;;;;;;;1.85;1.65;;;;;;;16.56;54.23;98090.22;5065269;28;20385;-83
2022/09/24 01:57:57;;;;;;;1.67;1.52;;;;;;;16.82;53.92;98097.81;5064400;28;20492;-84
2022/09/24 02:00:23;;;;;;;2.17;1.92;;;;;;;16.51;54.68;98088.25;5031070;28;20043;-81
2022/09/24 02:02:54;;;;;;;2.15;1.50;;;;;;;16.31;54.48;98062.81;5064218;28;20095;-80
2022/09/24 02:05:28;;;;;;;1.92;1.30;;;;;;;16.72;54.31;98078.81;5115372;28;20071;-84
2022/09/24 02:08:03;;;;;;;1.63;1.25;;;;;;;16.72;54.42;98068.09;5064485;28;20047;-79
2022/09/24 02:10:31;;;;;;;3.33;1.67;;;;;;;16.52;54.33;98036.28;5081830;28;20071;-79
2022/09/24 02:13:01;;;;;;;3.58;1.27;;;;;;;16.66;54.35;98069.03;5082154;28;20467;-78
2022/09/24 02:15:36;;;;;;;1.75;1.17;;;;;;;16.72;54.47;98057.34;5063633;28;20043;-79
2022/09/24 02:18:06;;;;;;;1.45;1.20;;;;;;;16.65;54.64;98065.50;5080768;28;20042;-80
2022/09/24 02:20:32;;;;;;;2.35;1.45;;;;;;;16.56;54.24;98055.38;5080375;28;20146;-79
2022/09/24 02:22:58;;;;;;;1.40;1.05;;;;;;;16.42;54.25;98052.09;5063943;28;20128;-80
2022/09/24 02:25:32;;;;;;;1.70;1.23;;;;;;;16.63;54.02;98051.56;5063451;28;20064;-80
2022/09/24 02:27:58;;;;;;;1.85;1.13;;;;;;;16.37;54.34;98043.97;5097615;28;20248;-77
2022/09/24 02:30:24;;;;;;;2.00;1.00;;;;;;;16.35;54.31;98042.53;5062246;28;20151;-77
2022/09/24 02:32:52;;;;;;;1.15;1.05;;;;;;;16.53;54.41;98031.72;5096459;28;20127;-77
2022/09/24 02:35:18;;;;;;;1.27;0.90;;;;;;;16.43;54.58;98032.31;5061777;28;20476;-83
2022/09/24 02:37:44;;;;;;;1.45;1.00;;;;;;;16.32;54.58;98032.28;5045135;28;20043;-77
2022/09/24 02:40:12;;;;;;;0.95;0.80;;;;;;;16.49;54.66;98020.69;5061784;28;20048;-77
2022/09/24 02:42:39;;;;;;;1.15;0.95;;;;;;;16.21;54.82;97988.41;5080344;28;20488;-80
2022/09/24 02:45:06;;;;;;;0.95;0.85;;;;;;;16.40;54.64;98015.88;5079179;28;20055;-80
2022/09/24 02:47:32;;;;;;;1.20;1.00;;;;;;;16.35;54.51;98011.22;5062375;28;20057;-82
2022/09/24 02:49:58;;;;;;;1.13;0.98;;;;;;;16.35;54.25;97997.81;5061512;28;20050;-76
2022/09/24 02:52:23;;;;;;;5.50;0.93;;;;;;;16.37;54.37;98006.44;5061893;28;20031;-76
2022/09/24 02:54:49;;;;;;;3.53;0.85;;;;;;;16.41;54.26;98004.09;5046372;28;20085;-83
2022/09/24 02:57:17;;;;;;;1.15;0.80;;;;;;;16.55;54.01;98003.66;5049491;28;20047;-82
2022/09/24 02:59:43;;;;;;;1.80;1.13;;;;;;;16.47;54.43;98000.50;5069930;28;20043;-83
2022/09/24 03:02:09;;;;;;;3.17;1.50;;;;;;;16.38;54.74;97996.53;5067076;28;20055;-82
2022/09/24 03:04:35;;;;;;;0.80;0.77;;;;;;;16.37;54.56;97997.59;5066097;28;20383;-84
2022/09/24 03:07:01;;;;;;;0.82;0.80;;;;;;;16.14;54.62;97965.47;5065219;28;20043;-84
2022/09/24 03:09:30;;;;;;;0.70;0.65;;;;;;;16.55;54.14;97995.63;5050009;28;20043;-85
2022/09/24 03:11:59;;;;;;;2.70;0.90;;;;;;;16.14;54.64;97957.44;5083619;28;20208;-83
2022/09/24 03:14:25;;;;;;;2.35;0.70;;;;;;;16.34;54.31;97980.13;5114530;28;20119;-81
2022/09/24 03:16:51;;;;;;;1.48;0.70;;;;;;;16.33;54.44;97988.38;5077027;28;20051;-81
2022/09/24 03:19:17;;;;;;;0.93;0.70;;;;;;;16.26;54.40;97982.34;5060338;28;20128;-79
2022/09/24 03:21:44;;;;;;;1.70;0.70;;;;;;;16.22;54.73;97970.47;5061646;28;20061;-82
2022/09/24 03:24:10;;;;;;;1.85;0.63;;;;;;;16.26;54.58;97969.75;5064819;28;20138;-81
2022/09/24 03:26:36;;;;;;;0.80;0.70;;;;;;;16.26;54.64;97975.13;5063607;28;20354;-81
2022/09/24 03:29:02;;;;;;;0.90;0.80;;;;;;;16.29;54.45;97968.47;5080456;28;20068;-80
2022/09/24 03:31:30;;;;;;;0.80;0.80;;;;;;;16.47;54.47;97968.34;5045363;28;20047;-80
2022/09/24 03:33:56;;;;;;;0.70;0.70;;;;;;;16.23;54.73;97959.53;5045082;28;20043;-80
2022/09/24 03:36:24;;;;;;;0.60;0.60;;;;;;;16.44;54.48;97952.75;5044810;28;20138;-79
2022/09/24 03:38:55;;;;;;;2.20;0.70;;;;;;;16.52;54.32;97949.72;5095324;28;20048;-82
2022/09/24 03:41:22;;;;;;;1.08;0.90;;;;;;;16.37;54.64;97955.53;5044560;28;20424;-79
2022/09/24 03:43:49;;;;;;;1.35;0.90;;;;;;;16.13;54.97;97929.81;5080451;28;20054;-80
2022/09/24 03:46:16;;;;;;;1.63;0.98;;;;;;;16.11;55.02;97921.22;5095362;28;20047;-78
2022/09/24 03:48:42;;;;;;;3.05;0.88;;;;;;;16.37;54.84;97936.78;5045371;28;20058;-80
2022/09/24 03:51:09;;;;;;;0.80;0.80;;;;;;;16.24;54.96;97931.66;5062347;28;20054;-80
2022/09/24 03:53:36;;;;;;;2.88;0.90;;;;;;;16.34;55.02;97926.56;5079155;28;20134;-80
2022/09/24 03:56:02;;;;;;;1.48;0.90;;;;;;;16.32;55.01;97925.97;5078506;28;20047;-80
2022/09/24 03:58:30;;;;;;;1.23;0.73;;;;;;;16.37;55.11;97925.25;5063057;28;20487;-79
2022/09/24 04:00:56;;;;;;;1.02;0.75;;;;;;;16.20;55.02;97916.31;5094821;28;20685;-79
2022/09/24 04:03:23;;;;;;;1.42;0.80;;;;;;;16.30;55.38;97914.66;5045668;28;20120;-82
2022/09/24 04:05:52;;;;;;;1.40;0.77;;;;;;;16.22;55.06;97908.88;5062061;28;20048;-78
2022/09/24 04:08:20;;;;;;;0.70;0.70;;;;;;;16.36;54.92;97908.34;5079127;28;20043;-80
2022/09/24 04:10:47;;;;;;;0.60;0.60;;;;;;;16.18;54.71;97900.47;5078442;28;20058;-78
2022/09/24 04:13:14;;;;;;;1.10;0.70;;;;;;;16.18;55.19;97889.75;5095375;28;20055;-78
2022/09/24 04:15:40;;;;;;;1.33;0.60;;;;;;;16.13;54.73;97897.69;5095877;28;20050;-76
2022/09/24 04:18:05;;;;;;;1.25;0.60;;;;;;;16.05;54.46;97894.56;5078297;28;20395;-80
2022/09/24 04:20:32;;;;;;;1.42;0.60;;;;;;;15.99;54.43;97885.59;5063764;28;20445;-82
2022/09/24 04:22:58;;;;;;;0.60;0.60;;;;;;;16.04;54.54;97891.06;5084379;28;20048;-80
2022/09/24 04:25:26;;;;;;;0.68;0.50;;;;;;;16.19;54.44;97891.38;5083207;28;20526;-77
2022/09/24 04:27:57;;;;;;;1.42;0.50;;;;;;;15.84;54.27;97826.38;5081935;28;20121;-78
2022/09/24 04:30:23;;;;;;;1.13;0.63;;;;;;;15.99;54.66;97858.81;5040461;28;20051;-76
2022/09/24 04:32:50;;;;;;;1.35;0.50;;;;;;;15.68;54.77;97823.59;5097920;28;20096;-78
2022/09/24 04:35:22;;;;;;;0.60;0.60;;;;;;;16.04;54.43;97861.59;5082329;28;20039;-76
2022/09/24 04:37:50;;;;;;;1.27;0.60;;;;;;;16.04;54.35;97855.44;5100346;28;20044;-81
2022/09/24 04:40:16;;;;;;;0.63;0.60;;;;;;;15.91;54.26;97847.66;5093906;28;20051;-82
2022/09/24 04:42:45;;;;;;;2.63;1.40;;;;;;;16.05;54.54;97849.03;5058541;28;20040;-81
2022/09/24 04:45:12;;;;;;;1.55;0.90;;;;;;;16.00;54.23;97846.25;5100647;28;20054;-81
2022/09/24 04:47:39;;;;;;;2.13;1.45;;;;;;;15.78;54.70;97818.44;5118797;28;20035;-83
2022/09/24 04:50:07;;;;;;;1.05;0.80;;;;;;;15.96;54.39;97831.72;5100439;28;20050;-80
2022/09/24 04:52:33;;;;;;;3.35;0.75;;;;;;;15.93;54.26;97837.53;5099117;28;20046;-81
2022/09/24 04:54:59;;;;;;;1.13;0.90;;;;;;;15.61;53.99;97772.88;5099100;28;20040;-78
2022/09/24 04:57:28;;;;;;;3.22;1.10;;;;;;;16.05;54.02;97823.06;5080912;28;20036;-76
2022/09/24 04:59:54;;;;;;;1.83;0.82;;;;;;;15.92;53.60;97819.84;5062155;28;20043;-76
2022/09/24 05:02:20;;;;;;;2.67;1.10;;;;;;;15.89;54.10;97810.41;5044323;28;20048;-76
2022/09/24 05:04:47;;;;;;;1.20;0.90;;;;;;;15.93;54.12;97816.13;5053648;28;20044;-81
2022/09/24 05:07:14;;;;;;;1.30;0.70;;;;;;;15.89;53.90;97814.94;5061913;28;20048;-81
2022/09/24 05:09:40;;;;;;;0.57;0.57;;;;;;;15.94;53.75;97807.03;5045973;28;20039;-78
2022/09/24 05:12:06;;;;;;;2.25;0.90;;;;;;;16.10;53.46;97800.91;5064773;28;20043;-77
2022/09/24 05:14:31;;;;;;;1.25;0.63;;;;;;;16.07;53.60;97791.50;5029675;28;20104;-75
2022/09/24 05:16:57;;;;;;;0.95;0.70;;;;;;;16.04;53.89;97783.94;5077293;28;20048;-76
2022/09/24 05:19:23;;;;;;;1.33;0.75;;;;;;;16.03;53.92;97784.19;5042835;28;20048;-73
2022/09/24 05:21:50;;;;;;;1.58;0.60;;;;;;;16.19;53.82;97776.22;5058264;28;20043;-74
2022/09/24 05:24:16;;;;;;;0.65;0.50;;;;;;;16.04;53.67;97767.88;5027207;28;20040;-75
2022/09/24 05:29:26;;;;;;;0.50;0.50;;;;;;;16.08;54.11;97761.00;5075489;28;20048;-73
2022/09/24 05:31:51;;;;;;;0.52;0.52;;;;;;;16.00;53.67;97753.34;5042295;28;20085;-78
2022/09/24 05:34:17;;;;;;;1.15;0.60;;;;;;;16.04;53.65;97746.47;5043985;28;20056;-75
2022/09/24 05:36:45;;;;;;;0.40;0.40;;;;;;;15.89;53.59;97716.72;5043395;28;20044;-73
2022/09/24 05:39:12;;;;;;;0.52;0.52;;;;;;;16.14;53.28;97735.97;5094591;28;20065;-74
2022/09/24 05:41:42;;;;;;;0.95;0.63;;;;;;;16.20;53.40;97742.22;5058841;28;20050;-74
2022/09/24 05:44:09;;;;;;;0.40;0.40;;;;;;;15.90;53.39;97706.84;5060331;28;20047;-80
2022/09/24 05:46:36;;;;;;;2.80;0.40;;;;;;;16.05;53.25;97721.31;5093622;28;20055;-77
2022/09/24 05:49:02;;;;;;;2.03;0.60;;;;;;;16.04;53.14;97732.25;5060629;28;20419;-77
2022/09/24 05:51:28;;;;;;;1.00;0.90;;;;;;;16.01;53.40;97722.84;5061202;28;20390;-77
2022/09/24 05:53:54;;;;;;;0.70;0.60;;;;;;;16.11;53.24;97727.59;5076947;28;20044;-81
2022/09/24 05:56:20;;;;;;;0.60;0.60;;;;;;;16.06;53.52;97714.91;5050736;28;20044;-75
2022/09/24 05:58:49;;;;;;;3.15;1.85;;;;;;;16.38;53.35;97713.38;5063172;28;20107;-79
2022/09/24 06:01:15;;;;;;;1.63;1.30;;;;;;;16.10;53.32;97716.06;5095854;28;20075;-74
2022/09/24 06:03:41;;;;;;;1.92;1.20;;;;;;;16.07;53.57;97715.72;5078466;28;20078;-77
2022/09/24 06:06:07;;;;;;;1.52;1.08;;;;;;;16.11;53.46;97706.16;5061756;28;20146;-75
2022/09/24 06:08:33;;;;;;;1.60;0.60;;;;;;;16.05;53.15;97697.19;5045552;28;20456;-76
2022/09/24 06:10:59;;;;;;;0.70;0.70;;;;;;;16.18;53.37;97696.09;5043106;28;20398;-77
2022/09/24 06:13:25;;;;;;;1.38;0.50;;;;;;;16.07;53.18;97692.44;5061072;28;20092;-71
2022/09/24 06:15:51;;;;;;;1.00;0.60;;;;;;;16.14;53.02;97695.78;5059746;28;20134;-69
2022/09/24 06:18:17;;;;;;;1.60;0.60;;;;;;;16.17;53.10;97702.53;5057985;28;20995;-72
2022/09/24 06:20:43;;;;;;;4.38;0.70;;;;;;;16.15;52.95;97685.88;5058932;28;20497;-70
2022/09/24 06:23:09;;;;;;;1.35;0.90;;;;;;;16.17;53.14;97687.28;5076318;28;20040;-74
2022/09/24 06:25:34;;;;;;;2.13;0.75;;;;;;;16.15;52.78;97692.06;5043112;28;20208;-72
2022/09/24 06:28:02;;;;;;;1.55;0.70;;;;;;;16.34;52.53;97682.75;5060463;28;20533;-72
2022/09/24 06:30:40;;;;;;;2.25;0.70;;;;;;;16.30;52.18;97667.38;5059899;28;20043;-68
2022/09/24 06:33:12;;;;;;;0.85;0.68;;;;;;;16.52;52.22;97679.88;5080661;28;20065;-73
2022/09/24 06:35:41;;;;;;;1.70;0.70;;;;;;;16.32;52.45;97668.78;5056485;28;20385;-71
2022/09/24 06:38:12;;;;;;;1.45;0.80;;;;;;;16.44;52.54;97680.28;5096343;28;20100;-74
2022/09/24 06:40:38;;;;;;;1.83;0.75;;;;;;;16.27;52.58;97683.94;5088981;28;20058;-73
2022/09/24 06:43:05;;;;;;;0.98;0.70;;;;;;;16.33;52.73;97674.94;5077824;28;20473;-75
2022/09/24 06:45:31;;;;;;;3.08;1.10;;;;;;;16.34;52.93;97685.44;5059845;28;20040;-73
2022/09/24 06:47:59;;;;;;;2.53;0.70;;;;;;;16.41;52.81;97671.88;5076029;28;20129;-73
2022/09/24 06:50:26;;;;;;;2.50;0.85;;;;;;;16.50;52.78;97679.31;5068727;28;20071;-73
2022/09/24 06:52:53;;;;;;;2.08;1.40;;;;;;;16.50;52.79;97668.56;5044346;28;20091;-71
2022/09/24 06:55:19;;;;;;;4.22;1.10;;;;;;;16.45;52.58;97673.06;5077544;28;20122;-69
2022/09/24 06:57:45;;;;;;;1.17;0.77;;;;;;;16.44;52.47;97660.69;5060388;28;20122;-70
2022/09/24 07:00:12;;;;;;;2.45;0.90;;;;;;;16.58;52.61;97662.81;5093768;28;20131;-70
2022/09/24 07:02:39;;;;;;;3.30;0.90;;;;;;;16.70;52.25;97657.38;5077280;28;20043;-70
2022/09/24 07:05:05;;;;;;;2.47;1.00;;;;;;;16.70;51.79;97658.19;5075338;28;20043;-72
2022/09/24 07:07:32;;;;;;;1.48;1.02;;;;;;;16.58;52.19;97660.16;5074997;28;20043;-74
2022/09/24 07:10:05;;;;;;;4.50;1.00;;;;;;;16.63;51.93;97636.13;5075450;28;20047;-74
2022/09/24 07:12:33;;;;;;;1.55;0.90;;;;;;;16.85;51.92;97649.56;5092843;28;20448;-78
2022/09/24 07:14:59;;;;;;;7.97;1.00;;;;;;;16.75;51.91;97655.59;5093225;28;20040;-78
2022/09/24 07:17:27;;;;;;;0.88;0.88;;;;;;;16.93;51.48;97645.66;5079379;28;20046;-79
2022/09/24 07:19:53;;;;;;;2.30;1.00;;;;;;;16.68;51.86;97646.88;5042623;28;20138;-80
2022/09/24 07:22:20;;;;;;;2.50;1.20;;;;;;;16.89;51.80;97642.66;5059304;28;20058;-81
2022/09/24 07:24:47;;;;;;;5.18;0.90;;;;;;;16.76;51.00;97637.63;5077465;28;20056;-78
2022/09/24 07:27:13;;;;;;;2.95;0.80;;;;;;;16.64;51.05;97647.63;5041698;28;20048;-78
2022/09/24 07:29:39;;;;;;;2.03;1.00;;;;;;;16.69;51.28;97643.16;5040189;28;20355;-77
2022/09/24 07:32:06;;;;;;;0.73;0.70;;;;;;;16.67;51.52;97642.59;5092934;28;20062;-78
2022/09/24 07:34:32;;;;;;;3.05;1.00;;;;;;;16.61;51.54;97610.59;5077286;28;20400;-78
2022/09/24 07:36:58;;;;;;;1.38;0.80;;;;;;;16.72;51.48;97639.19;5042327;28;20043;-75
2022/09/24 07:39:38;;;;;;;3.38;1.13;;;;;;;16.74;51.46;97627.13;5041712;28;20134;-76
2022/09/24 07:42:11;;;;;;;0.98;0.90;;;;;;;16.77;51.27;97625.84;5077832;28;20435;-77
2022/09/24 07:44:37;;;;;;;3.10;1.35;;;;;;;16.83;50.94;97632.91;5043262;28;20075;-77
2022/09/24 07:47:03;;;;;;;5.22;3.60;;;;;;;16.91;50.80;97634.34;5043544;28;20385;-76
2022/09/24 07:49:31;;;;;;;5.03;2.38;;;;;;;16.84;50.68;97626.47;5041218;28;20690;-71
2022/09/24 07:51:57;;;;;;;3.63;2.00;;;;;;;16.89;50.92;97634.59;5078772;28;20039;-73
2022/09/24 07:54:23;;;;;;;5.38;1.50;;;;;;;16.97;51.14;97623.47;5094940;28;20054;-78
2022/09/24 07:56:49;;;;;;;0.88;0.80;;;;;;;17.03;50.40;97613.59;5064925;28;20043;-75
2022/09/24 07:59:15;;;;;;;1.60;0.90;;;;;;;17.07;50.08;97617.44;5063780;28;20104;-73
2022/09/24 08:01:40;;;;;;;1.58;1.10;;;;;;;17.00;49.99;97614.94;5115978;28;20416;-72
2022/09/24 08:04:07;;;;;;;2.75;1.50;;;;;;;16.84;50.33;97599.66;5063354;28;20061;-73
2022/09/24 08:06:34;;;;;;;2.28;1.52;;;;;;;17.14;50.50;97601.97;5073380;28;20036;-74
2022/09/24 08:09:01;;;;;;;4.97;2.35;;;;;;;17.07;50.62;97609.41;5063612;28;20050;-75
2022/09/24 08:11:28;;;;;;;4.38;2.17;;;;;;;17.13;50.10;97609.19;5071623;28;20051;-72
2022/09/24 08:13:57;;;;;;;3.40;2.10;;;;;;;17.35;50.01;97601.97;5113501;28;20642;-72
2022/09/24 08:16:24;;;;;;;5.10;2.78;;;;;;;17.17;49.98;97604.16;5060083;28;20046;-72
2022/09/24 08:18:50;;;;;;;5.00;3.03;;;;;;;17.06;50.03;97599.69;5060295;28;20063;-72
2022/09/24 08:21:16;;;;;;;5.78;3.15;;;;;;;17.11;49.97;97605.16;5079190;28;20067;-72
2022/09/24 08:23:42;;;;;;;4.28;2.60;;;;;;;17.05;50.05;97579.31;5043580;28;20066;-73
2022/09/24 08:26:10;;;;;;;3.22;2.08;;;;;;;17.31;49.91;97605.41;5060876;28;20039;-72
2022/09/24 08:28:36;;;;;;;1.50;1.00;;;;;;;17.28;49.75;97592.50;5078553;28;20093;-73
2022/09/24 08:31:07;;;;;;;2.50;1.10;;;;;;;17.47;49.64;97604.53;5073737;28;20040;-72
2022/09/24 08:33:34;;;;;;;1.33;0.88;;;;;;;17.36;49.90;97595.53;5096280;28;20040;-71
2022/09/24 08:36:02;;;;;;;3.83;1.50;;;;;;;17.46;49.40;97597.56;5114461;28;20035;-72
2022/09/24 08:38:27;;;;;;;1.25;1.15;;;;;;;17.37;49.93;97596.34;5095554;28;20526;-72
2022/09/24 08:41:11;;;;;;;2.13;1.00;;;;;;;17.60;49.49;97588.06;5063050;28;20075;-73
2022/09/24 08:43:52;;;;;;;3.15;1.23;;;;;;;17.67;49.42;97597.53;5097920;28;20512;-72
2022/09/24 08:49:07;;;;;;;2.05;1.40;;;;;;;17.61;48.80;97595.84;5065951;28;19919;-71
2022/09/24 08:51:44;;;;;;;2.22;1.00;;;;;;;17.55;49.26;97575.41;5063507;28;20067;-72
2022/09/24 08:54:13;;;;;;;1.85;0.95;;;;;;;17.55;49.59;97585.31;5063453;28;20047;-72
2022/09/24 08:56:44;;;;;;;4.88;1.30;;;;;;;17.53;49.52;97568.66;5114999;28;20129;-72
2022/09/24 08:59:31;;;;;;;1.80;1.10;;;;;;;17.71;48.89;97590.59;5096560;28;20469;-70
2022/09/24 09:02:12;;;;;;;3.78;1.40;;;;;;;17.62;49.32;97578.69;5096789;28;20476;-69
2022/09/24 09:04:48;;;;;;;5.40;1.35;;;;;;;17.67;49.17;97584.09;5063319;28;20058;-74
2022/09/24 09:07:20;;;;;;;7.63;1.80;;;;;;;17.70;49.78;97577.41;5096310;28;20071;-71
2022/09/24 09:09:56;;;;;;;2.25;1.48;;;;;;;17.68;49.46;97579.56;5079138;28;20050;-73
2022/09/24 09:12:44;;;;;;;2.15;1.58;;;;;;;17.61;49.49;97568.19;5063115;28;20055;-72
2022/09/24 09:15:13;;;;;;;2.92;1.30;;;;;;;17.56;49.81;97577.00;5063078;28;20130;-74
2022/09/24 09:17:44;;;;;;;5.25;1.30;;;;;;;17.43;49.68;97573.88;5096901;28;20035;-72
2022/09/24 09:20:17;;;;;;;1.90;1.20;;;;;;;17.49;49.80;97568.34;5113657;28;20454;-71
2022/09/24 09:22:47;;;;;;;1.80;1.50;;;;;;;17.43;50.13;97565.81;5062157;28;20385;-73
2022/09/24 09:25:27;;;;;;;3.15;1.30;;;;;;;17.51;49.95;97562.72;5079631;28;20043;-73
2022/09/24 09:28:06;;;;;;;2.28;1.05;;;;;;;17.51;50.13;97573.47;5079001;28;20079;-73
2022/09/24 09:30:42;;;;;;;4.00;1.30;;;;;;;17.53;49.29;97565.97;5063148;28;20047;-74
2022/09/24 09:33:30;;;;;;;1.52;1.00;;;;;;;17.53;49.47;97558.72;5096811;28;20436;-74
2022/09/24 09:36:09;;;;;;;1.52;1.00;;;;;;;17.60;49.58;97555.84;5079621;28;20507;-75
2022/09/24 09:38:44;;;;;;;4.55;1.42;;;;;;;17.32;49.58;97567.59;5078548;28;20044;-75
2022/09/24 09:41:13;;;;;;;5.40;1.40;;;;;;;17.51;49.56;97558.19;5045305;28;20189;-74
2022/09/24 09:43:40;;;;;;;1.98;1.23;;;;;;;17.43;50.27;97547.88;5041843;28;20044;-74
2022/09/24 09:46:14;;;;;;;4.80;1.20;;;;;;;17.46;49.72;97536.66;5060237;28;20048;-75
2022/09/24 09:48:53;;;;;;;2.55;1.40;;;;;;;17.62;49.63;97553.72;5075198;28;20047;-74
2022/09/24 09:51:23;;;;;;;2.40;1.42;;;;;;;17.48;50.03;97539.09;5079424;28;20055;-74
2022/09/24 09:54:00;;;;;;;4.25;1.48;;;;;;;17.50;49.56;97539.63;5114763;28;20111;-74
2022/09/24 09:56:30;;;;;;;2.95;1.20;;;;;;;17.61;49.86;97541.34;5079669;28;20418;-75
2022/09/24 09:59:05;;;;;;;2.35;1.20;;;;;;;17.66;49.52;97544.91;5079318;28;20043;-74
2022/09/24 10:01:34;;;;;;;2.85;1.50;;;;;;;17.57;49.57;97542.94;5062697;28;20051;-74
2022/09/24 10:04:03;;;;;;;2.40;1.30;;;;;;;17.57;49.49;97534.88;5063066;28;20052;-74
2022/09/24 10:06:34;;;;;;;7.32;1.85;;;;;;;17.68;49.04;97541.97;5096154;28;20043;-74
2022/09/24 10:09:20;;;;;;;7.65;1.40;;;;;;;17.64;49.03;97541.66;5062828;28;20043;-78
2022/09/24 10:11:48;;;;;;;5.90;2.13;;;;;;;17.35;50.11;97542.13;5097954;28;20051;-74
2022/09/24 10:14:17;;;;;;;5.90;1.77;;;;;;;17.48;49.98;97539.88;5096814;28;20062;-75
2022/09/24 10:16:44;;;;;;;5.68;2.10;;;;;;;17.43;50.15;97531.75;5095958;28;20094;-72
2022/09/24 10:19:21;;;;;;;3.63;1.73;;;;;;;17.47;50.22;97534.75;5077429;28;20059;-73
2022/09/24 10:21:48;;;;;;;2.88;1.75;;;;;;;17.36;50.59;97533.81;5078515;28;20116;-69
2022/09/24 10:24:18;;;;;;;5.43;1.90;;;;;;;17.47;50.62;97537.44;5056228;28;20047;-69
2022/09/24 10:26:44;;;;;;;2.55;1.25;;;;;;;17.42;50.04;97542.75;5042187;28;20047;-71
2022/09/24 10:32:06;;;;;;;4.18;1.50;;;;;;;17.46;49.85;97538.53;5061560;28;20664;-70
2022/09/24 10:34:31;;;;;;;2.33;1.20;;;;;;;17.30;49.71;97534.81;5077836;28;20051;-71
2022/09/24 10:37:22;;;;;;;3.00;1.20;;;;;;;17.41;49.59;97536.56;5061977;28;20074;-69
2022/09/24 10:40:12;;;;;;;3.65;1.40;;;;;;;17.54;49.15;97536.22;5094390;28;20077;-70
2022/09/24 10:42:38;;;;;;;2.23;1.10;;;;;;;17.32;49.63;97542.63;5095425;28;20044;-70
2022/09/24 10:45:10;;;;;;;3.28;1.30;;;;;;;17.42;49.36;97532.81;5061504;28;20082;-71
2022/09/24 10:47:59;;;;;;;3.92;1.30;;;;;;;17.40;49.64;97526.09;5061866;28;20062;-70
2022/09/24 10:50:29;;;;;;;5.50;1.90;;;;;;;17.25;50.45;97526.72;5015887;28;20105;-71
2022/09/24 10:53:38;;;;;;;5.53;2.10;;;;;;;17.43;50.37;97522.88;5095295;28;20035;-73
2022/09/24 10:56:20;;;;;;;7.10;2.65;;;;;;;17.35;50.63;97526.00;4994258;28;20097;-70
2022/09/24 10:59:21;;;;;;;4.53;1.70;;;;;;;17.46;50.13;97527.78;4961356;28;20469;-75
2022/09/24 11:01:59;;;;;;;4.32;1.63;;;;;;;17.34;50.07;97498.41;4977342;28;20066;-76
2022/09/24 11:04:34;;;;;;;3.22;1.20;;;;;;;17.47;50.23;97529.41;4961903;28;20239;-71
2022/09/24 11:07:21;;;;;;;5.28;2.92;;;;;;;17.39;50.30;97511.84;5028222;28;20059;-73
2022/09/24 11:10:21;;;;;;;4.75;2.47;;;;;;;17.53;50.07;97520.34;5076983;28;20100;-68
2022/09/24 11:13:09;;;;;;;2.13;1.65;;;;;;;17.45;50.47;97515.44;5077698;28;20554;-68
2022/09/24 11:15:53;;;;;;;2.13;1.50;;;;;;;17.40;50.32;97518.84;5040942;28;20040;-68
2022/09/24 11:18:45;;;;;;;3.75;1.92;;;;;;;17.38;50.56;97515.59;5073803;28;20130;-69
2022/09/24 11:21:22;;;;;;;3.58;1.58;;;;;;;17.39;50.85;97521.78;5074028;28;20055;-68
2022/09/24 11:23:54;;;;;;;2.55;1.70;;;;;;;17.20;50.69;97515.13;5057416;28;20134;-68
2022/09/24 11:26:22;;;;;;;2.90;1.23;;;;;;;17.20;50.39;97518.63;5040367;28;20061;-69
2022/09/24 11:29:05;;;;;;;5.03;1.80;;;;;;;17.42;50.35;97518.59;5055675;28;20048;-68
2022/09/24 11:31:47;;;;;;;2.50;1.55;;;;;;;17.02;50.99;97488.63;5074509;28;20098;-69
2022/09/24 11:34:21;;;;;;;2.47;1.70;;;;;;;17.42;50.87;97513.22;5041396;28;20200;-71
2022/09/24 11:37:13;;;;;;;2.40;1.70;;;;;;;17.49;50.57;97505.81;5057532;28;20044;-68
2022/09/24 11:39:41;;;;;;;;;;;;;;;17.53;50.26;97501.56;5041786;28;20437;-70
2022/09/24 11:42:28;;;;;;;4.65;2.50;;;;;;;17.33;50.68;97487.91;5058349;28;19981;-69
2022/09/24 11:45:33;;;;;;;3.28;1.80;;;;;;;17.27;50.86;97489.72;5074858;28;20043;-69
2022/09/24 11:48:23;;;;;;;2.47;1.55;;;;;;;17.34;50.49;97508.31;5091174;28;20122;-73
2022/09/24 11:51:23;;;;;;;3.13;1.75;;;;;;;17.25;51.39;97493.72;5074734;28;20482;-73
2022/09/24 11:54:21;;;;;;;2.97;1.60;;;;;;;17.20;51.11;97501.72;5074677;28;20470;-70
2022/09/24 11:56:49;;;;;;;6.57;2.40;;;;;;;16.95;52.05;97482.63;5045297;28;20047;-71
2022/09/24 11:59:36;;;;;;;4.40;2.13;;;;;;;17.08;51.65;97495.69;5041083;28;20048;-72
2022/09/24 12:02:18;;;;;;;13.38;9.35;;;;;;;17.11;51.71;97495.19;5040735;28;20501;-68